Audenshaw, United Kingdom
Current Conditions -  °F | °C
As of 5:20 PM on Thursday 30 Oct 2014 (Local Time) from EGCC Reporting Station
Overcast Overcast  
Wind Chill: 61°   Ceiling: 4600
Heat Index: 61°   Visibility: 6mi
Dew Point: 57°   Wind: 9mph
Humidity: 88%   Direction: 170°S
Pressure: 29.97"   Gusts: NA
Location:  53.45°N, 2.12°W
Report Text: EGCC 301720Z AUTO 17008KT 9999 OVC046 16/14 Q1015
Loading
Personal Weather Stations






























Interactive Weather Map
Tropical Storm Tracking
New forecast layout! Learn more

10-Day Weather Forecast

Advertisements
Track Severe Weather on mobile